createdAt,value
2023-03-28T00:00:12.101Z,7.09
2023-03-28T00:02:38.841Z,8.94
2023-03-28T00:05:05.759Z,10.95
2023-03-28T00:07:32.106Z,12.84
2023-03-28T00:09:58.543Z,14.55
2023-03-28T00:12:24.945Z,17.59
2023-03-28T00:14:51.314Z,20.74
2023-03-28T00:17:17.955Z,24.30
2023-03-28T00:19:46.988Z,29.02
2023-03-28T00:22:13.634Z,32.75
2023-03-28T00:24:39.982Z,35.01
2023-03-28T00:27:07.117Z,38.90
2023-03-28T00:29:33.831Z,41.93
2023-03-28T00:32:03.207Z,43.60
2023-03-28T00:34:29.591Z,44.72
2023-03-28T00:36:55.923Z,45.61
2023-03-28T00:39:22.439Z,47.48
2023-03-28T00:41:49.296Z,47.15
2023-03-28T00:44:48.182Z,46.82
2023-03-28T00:47:37.437Z,46.36
2023-03-28T00:50:04.126Z,45.02
2023-03-28T00:52:33.304Z,44.77
2023-03-28T00:54:59.723Z,43.98
2023-03-28T00:57:26.349Z,44.29
2023-03-28T00:59:52.802Z,44.42
2023-03-28T01:02:19.632Z,45.01
2023-03-28T01:04:54.550Z,46.00
2023-03-28T01:07:20.914Z,47.39
2023-03-28T01:09:47.541Z,47.29
2023-03-28T01:12:14.908Z,48.61
2023-03-28T01:14:41.545Z,52.73
2023-03-28T01:17:08.757Z,53.57
2023-03-28T01:19:47.199Z,52.24
2023-03-28T01:22:43.022Z,48.86
2023-03-28T01:25:27.933Z,48.35
2023-03-28T01:28:02.070Z,50.86
2023-03-28T01:30:49.897Z,48.57
2023-03-28T01:33:46.828Z,45.67
2023-03-28T01:36:50.385Z,42.44
2023-03-28T01:39:29.778Z,39.58
2023-03-28T01:42:12.892Z,40.67
2023-03-28T01:45:19.634Z,40.40
2023-03-28T01:48:04.752Z,35.98
2023-03-28T01:50:48.520Z,33.83
2023-03-28T01:53:26.412Z,31.60
2023-03-28T01:55:59.151Z,28.78
2023-03-28T01:58:49.388Z,28.41
2023-03-28T02:01:20.077Z,27.10
2023-03-28T02:03:48.376Z,24.38
2023-03-28T02:06:14.759Z,23.70
2023-03-28T02:08:41.574Z,22.81
2023-03-28T02:11:09.420Z,21.58
2023-03-28T02:13:44.991Z,21.14
2023-03-28T02:16:11.653Z,19.87
2023-03-28T02:18:41.596Z,19.97
2023-03-28T02:21:10.804Z,19.45
2023-03-28T02:23:42.892Z,19.87
2023-03-28T02:26:09.231Z,21.12
2023-03-28T02:28:36.915Z,20.41
2023-03-28T02:31:04.176Z,19.59
2023-03-28T02:33:32.525Z,21.08
2023-03-28T02:36:25.607Z,20.17
2023-03-28T02:39:22.038Z,19.82
2023-03-28T02:42:16.175Z,20.78
2023-03-28T02:44:54.673Z,22.01
2023-03-28T02:47:40.553Z,24.33
2023-03-28T02:50:28.911Z,26.30
2023-03-28T02:53:02.785Z,26.69
2023-03-28T02:55:50.478Z,27.84
2023-03-28T02:58:34.165Z,28.38
2023-03-28T03:01:02.530Z,28.87
2023-03-28T03:03:28.965Z,29.45
2023-03-28T03:05:58.591Z,29.32
2023-03-28T03:08:25.234Z,28.34
2023-03-28T03:10:51.634Z,28.15
2023-03-28T03:13:18.217Z,28.95
2023-03-28T03:15:46.144Z,28.59
2023-03-28T03:18:16.821Z,28.82
2023-03-28T03:20:45.697Z,28.37
2023-03-28T03:23:12.564Z,28.25
2023-03-28T03:25:39.376Z,27.45
2023-03-28T03:28:05.895Z,27.33
2023-03-28T03:30:32.367Z,26.60
2023-03-28T03:33:00.444Z,26.51
2023-03-28T03:35:33.441Z,25.23
2023-03-28T03:38:00.498Z,24.47
2023-03-28T03:40:27.044Z,24.85
2023-03-28T03:42:53.482Z,24.35
2023-03-28T03:45:19.838Z,24.92
2023-03-28T03:47:46.184Z,26.42
2023-03-28T03:50:13.876Z,28.40
2023-03-28T03:52:40.359Z,29.12
2023-03-28T03:55:07.513Z,30.94
2023-03-28T03:57:34.121Z,31.70
2023-03-28T04:00:02.098Z,32.15
2023-03-28T04:02:28.656Z,31.45
2023-03-28T04:04:57.248Z,31.42
2023-03-28T04:07:23.647Z,31.31
2023-03-28T04:09:50.210Z,33.01
2023-03-28T04:12:16.784Z,33.03
2023-03-28T04:14:43.148Z,34.53
2023-03-28T04:17:09.652Z,34.81
2023-03-28T04:19:40.703Z,35.83
2023-03-28T04:22:08.138Z,38.29
2023-03-28T04:24:37.123Z,38.78
2023-03-28T04:27:03.789Z,40.52
2023-03-28T04:29:32.862Z,41.24
2023-03-28T04:31:59.257Z,43.16
2023-03-28T04:34:30.070Z,43.02
2023-03-28T04:37:03.713Z,43.29
2023-03-28T04:39:30.982Z,44.17
2023-03-28T04:42:01.667Z,44.69
2023-03-28T04:44:29.348Z,45.88
2023-03-28T04:46:56.638Z,47.56
2023-03-28T04:49:23.167Z,48.03
2023-03-28T04:51:50.748Z,48.64
2023-03-28T04:54:17.796Z,49.02
2023-03-28T04:56:50.169Z,49.66
2023-03-28T04:59:17.534Z,50.29
2023-03-28T05:01:49.308Z,51.70
2023-03-28T05:04:17.653Z,52.97
2023-03-28T05:06:45.758Z,53.91
2023-03-28T05:09:12.479Z,53.89
2023-03-28T05:11:39.473Z,55.06
2023-03-28T05:14:05.888Z,54.55
2023-03-28T05:16:32.534Z,54.22
2023-03-28T05:18:59.125Z,53.13
2023-03-28T05:21:25.587Z,53.05
2023-03-28T05:23:52.473Z,52.65
2023-03-28T05:26:19.076Z,52.11
2023-03-28T05:28:45.577Z,53.90
2023-03-28T05:31:12.884Z,53.24
2023-03-28T05:33:39.293Z,52.87
2023-03-28T05:36:06.017Z,53.12
2023-03-28T05:38:33.792Z,52.62
2023-03-28T05:41:00.490Z,53.14
2023-03-28T05:43:27.022Z,53.40
2023-03-28T05:45:53.469Z,53.77
2023-03-28T05:48:20.019Z,53.06
2023-03-28T05:50:47.979Z,53.42
2023-03-28T05:53:14.378Z,52.30
2023-03-28T05:55:41.568Z,51.99
2023-03-28T05:58:08.028Z,51.98
2023-03-28T06:00:34.644Z,51.73
2023-03-28T06:03:01.516Z,51.28
2023-03-28T06:05:28.221Z,51.41
2023-03-28T06:07:54.627Z,50.70
2023-03-28T06:10:21.557Z,50.08
2023-03-28T06:12:47.905Z,49.45
2023-03-28T06:15:14.458Z,47.60
2023-03-28T06:17:41.184Z,48.10
2023-03-28T06:20:09.969Z,48.28
2023-03-28T06:22:37.607Z,47.76
2023-03-28T06:25:04.996Z,45.04
2023-03-28T06:27:31.751Z,45.85
2023-03-28T06:29:59.884Z,43.30
2023-03-28T06:32:27.952Z,40.83
2023-03-28T06:34:54.395Z,39.52
2023-03-28T06:37:20.819Z,36.95
2023-03-28T06:39:50.648Z,35.31
2023-03-28T06:42:17.509Z,32.67
2023-03-28T06:44:43.886Z,32.62
2023-03-28T06:47:10.440Z,31.93
2023-03-28T06:49:36.829Z,30.57
2023-03-28T06:52:03.382Z,28.63
2023-03-28T06:54:29.761Z,28.32
2023-03-28T06:56:56.333Z,28.72
2023-03-28T06:59:22.868Z,27.83
2023-03-28T07:01:49.452Z,27.97
2023-03-28T07:04:16.028Z,27.54
2023-03-28T07:06:42.572Z,27.57
2023-03-28T07:09:08.974Z,29.56
2023-03-28T07:11:35.389Z,29.95
2023-03-28T07:14:01.968Z,30.13
2023-03-28T07:16:28.410Z,30.10
2023-03-28T07:18:54.986Z,30.78
2023-03-28T07:21:21.400Z,29.89
2023-03-28T07:23:47.839Z,28.35
2023-03-28T07:26:14.625Z,27.67
2023-03-28T07:28:41.324Z,27.81
2023-03-28T07:31:07.845Z,27.71
2023-03-28T07:33:37.230Z,27.71
2023-03-28T07:36:09.803Z,26.94
2023-03-28T07:38:36.968Z,27.28
2023-03-28T07:41:03.727Z,24.85
2023-03-28T07:43:30.572Z,23.60
2023-03-28T07:46:06.375Z,21.22
2023-03-28T07:48:33.171Z,21.24
2023-03-28T07:51:00.499Z,20.10
2023-03-28T07:53:27.689Z,18.80
2023-03-28T07:55:56.068Z,17.96
2023-03-28T07:58:22.885Z,16.83
2023-03-28T08:00:49.908Z,16.83
2023-03-28T08:03:17.130Z,17.25
2023-03-28T08:05:51.426Z,15.72
2023-03-28T08:08:21.485Z,16.15
2023-03-28T08:10:51.380Z,15.29
2023-03-28T08:13:19.564Z,16.06
2023-03-28T08:15:48.535Z,18.30
2023-03-28T08:18:20.672Z,17.04
2023-03-28T08:20:50.148Z,26.34
2023-03-28T08:23:16.817Z,27.83
2023-03-28T08:25:44.406Z,22.10
2023-03-28T08:28:11.348Z,18.96
2023-03-28T08:30:37.740Z,23.19
2023-03-28T08:33:04.561Z,31.20
2023-03-28T08:35:32.306Z,43.46
2023-03-28T08:37:59.351Z,51.25
2023-03-28T08:40:28.286Z,48.83
2023-03-28T08:43:20.795Z,60.38
2023-03-28T08:45:56.488Z,64.49
2023-03-28T08:48:30.904Z,65.91
2023-03-28T08:51:05.958Z,66.72
2023-03-28T08:53:34.803Z,69.31
2023-03-28T08:56:02.142Z,70.95
2023-03-28T08:58:34.591Z,70.33
2023-03-28T09:01:01.333Z,72.66
2023-03-28T09:03:27.915Z,94.15
2023-03-28T09:06:07.597Z,100.00
2023-03-28T09:08:38.913Z,100.00
2023-03-28T09:11:19.889Z,100.00
2023-03-28T09:14:02.991Z,100.00
2023-03-28T09:16:51.554Z,100.00
2023-03-28T09:19:47.789Z,100.00
2023-03-28T09:22:53.632Z,100.00
2023-03-28T09:25:35.491Z,100.00
2023-03-28T09:28:30.250Z,100.00
2023-03-28T09:30:56.592Z,100.00
2023-03-28T09:33:34.842Z,100.00
2023-03-28T09:36:01.291Z,100.00
2023-03-28T09:38:38.807Z,100.00
2023-03-28T09:41:13.215Z,100.00
2023-03-28T09:43:41.445Z,100.00
2023-03-28T09:46:09.437Z,100.00
2023-03-28T09:48:36.774Z,100.00
2023-03-28T09:51:04.557Z,100.00
2023-03-28T09:53:33.396Z,100.00
2023-03-28T09:56:04.784Z,100.00
2023-03-28T09:58:52.957Z,100.00
2023-03-28T10:01:26.021Z,100.00
2023-03-28T10:03:54.427Z,100.00
2023-03-28T10:06:25.725Z,100.00
2023-03-28T10:08:52.276Z,100.00
2023-03-28T10:11:19.622Z,100.00
2023-03-28T10:13:50.167Z,100.00
2023-03-28T10:16:32.206Z,100.00
2023-03-28T10:18:58.772Z,100.00
2023-03-28T10:21:26.278Z,100.00
2023-03-28T10:24:00.935Z,100.00
2023-03-28T10:26:27.484Z,100.00
2023-03-28T10:28:54.662Z,100.00
2023-03-28T10:31:23.585Z,100.00
2023-03-28T10:33:52.414Z,100.00
2023-03-28T10:36:43.737Z,100.00
2023-03-28T10:39:29.689Z,100.00
2023-03-28T10:41:57.639Z,100.00
2023-03-28T10:44:30.293Z,100.00
2023-03-28T10:47:01.670Z,100.00
2023-03-28T10:49:29.138Z,100.00
2023-03-28T10:51:55.857Z,100.00
2023-03-28T10:54:28.371Z,100.00
2023-03-28T10:56:57.092Z,100.00
2023-03-28T10:59:47.832Z,100.00
2023-03-28T11:02:38.931Z,100.00
2023-03-28T11:05:28.842Z,100.00
2023-03-28T11:07:58.301Z,100.00
2023-03-28T11:10:56.967Z,100.00
2023-03-28T11:13:28.475Z,100.00
2023-03-28T11:16:08.255Z,100.00
2023-03-28T11:18:52.979Z,100.00
2023-03-28T11:21:42.813Z,100.00
2023-03-28T11:24:12.872Z,100.00
2023-03-28T11:26:45.550Z,100.00
2023-03-28T11:29:27.995Z,100.00
2023-03-28T11:32:24.889Z,100.00
2023-03-28T11:35:12.550Z,100.00
2023-03-28T11:37:49.598Z,100.00
2023-03-28T11:40:35.309Z,100.00
2023-03-28T11:43:04.527Z,100.00
2023-03-28T11:45:54.291Z,100.00
2023-03-28T11:48:44.579Z,100.00
2023-03-28T11:51:13.361Z,100.00
2023-03-28T11:53:44.537Z,100.00
2023-03-28T11:56:18.276Z,100.00
2023-03-28T11:58:46.424Z,100.00
2023-03-28T12:01:18.679Z,100.00
2023-03-28T12:04:00.520Z,100.00
2023-03-28T12:06:59.616Z,100.00
2023-03-28T12:09:55.938Z,100.00
2023-03-28T12:12:33.802Z,100.00
2023-03-28T12:15:06.007Z,100.00
2023-03-28T12:17:35.498Z,100.00
2023-03-28T12:20:02.349Z,100.00
2023-03-28T12:22:40.226Z,100.00
2023-03-28T12:25:13.880Z,100.00
2023-03-28T12:27:46.956Z,100.00
2023-03-28T12:30:21.308Z,100.00
2023-03-28T12:32:49.912Z,100.00
2023-03-28T12:35:44.921Z,100.00
2023-03-28T12:38:22.655Z,100.00
2023-03-28T12:40:56.341Z,100.00
2023-03-28T12:43:37.068Z,100.00
2023-03-28T12:46:04.248Z,100.00
2023-03-28T12:48:57.517Z,100.00
2023-03-28T12:51:39.655Z,100.00
2023-03-28T12:54:20.285Z,100.00
2023-03-28T12:56:47.790Z,100.00
2023-03-28T12:59:45.852Z,100.00
2023-03-28T13:02:44.619Z,100.00
2023-03-28T13:05:24.626Z,100.00
2023-03-28T13:08:02.229Z,100.00
2023-03-28T13:10:55.964Z,100.00
2023-03-28T13:13:46.700Z,100.00
2023-03-28T13:16:13.994Z,100.00
2023-03-28T13:18:46.581Z,100.00
2023-03-28T13:21:13.007Z,100.00
2023-03-28T13:23:46.815Z,100.00
2023-03-28T13:26:13.369Z,100.00
2023-03-28T13:28:43.801Z,100.00
2023-03-28T13:31:19.678Z,100.00
2023-03-28T13:33:59.824Z,100.00
2023-03-28T13:36:33.544Z,100.00
2023-03-28T13:39:19.571Z,100.00
2023-03-28T13:41:46.232Z,100.00
2023-03-28T13:44:20.383Z,100.00
2023-03-28T13:46:51.068Z,100.00
2023-03-28T13:49:43.964Z,100.00
2023-03-28T13:52:21.114Z,99.35
2023-03-28T13:54:53.882Z,97.47
2023-03-28T13:57:21.493Z,94.91
2023-03-28T13:59:59.877Z,94.00
2023-03-28T14:02:29.606Z,95.87
2023-03-28T14:04:57.817Z,95.52
2023-03-28T14:07:25.978Z,94.99
2023-03-28T14:09:53.582Z,95.14
2023-03-28T14:12:19.952Z,94.56
2023-03-28T14:14:50.431Z,95.66
2023-03-28T14:17:33.064Z,96.03
2023-03-28T14:20:01.793Z,97.05
2023-03-28T14:22:29.094Z,97.46
2023-03-28T14:25:02.922Z,98.30
2023-03-28T14:27:30.787Z,96.84
2023-03-28T14:29:59.316Z,97.34
2023-03-28T14:32:27.405Z,98.80
2023-03-28T14:34:55.967Z,99.89
2023-03-28T14:37:22.718Z,95.83
2023-03-28T14:39:49.356Z,95.93
2023-03-28T14:42:16.800Z,95.17
2023-03-28T14:44:53.530Z,95.33
2023-03-28T14:47:27.869Z,96.48
2023-03-28T14:49:54.538Z,94.40
2023-03-28T14:52:27.890Z,94.94
2023-03-28T14:54:54.448Z,96.29
2023-03-28T14:57:21.662Z,94.61
2023-03-28T14:59:48.492Z,94.85
2023-03-28T15:02:35.703Z,96.07
2023-03-28T15:05:03.715Z,97.80
2023-03-28T15:07:33.066Z,96.90
2023-03-28T15:10:18.521Z,92.97
2023-03-28T15:13:05.168Z,88.21
2023-03-28T15:15:36.752Z,89.05
2023-03-28T15:18:06.728Z,88.08
2023-03-28T15:20:34.555Z,87.95
2023-03-28T15:23:03.267Z,86.99
2023-03-28T15:25:29.689Z,86.19
2023-03-28T15:27:58.043Z,86.30
2023-03-28T15:30:24.441Z,86.02
2023-03-28T15:32:51.052Z,86.95
2023-03-28T15:35:39.501Z,87.20
2023-03-28T15:38:14.521Z,87.93
2023-03-28T15:40:51.200Z,89.64
2023-03-28T15:43:27.053Z,90.14
2023-03-28T15:46:00.176Z,89.25
2023-03-28T15:48:27.102Z,90.37
2023-03-28T15:50:53.832Z,90.22
2023-03-28T15:53:20.333Z,91.80
2023-03-28T15:55:48.257Z,91.87
2023-03-28T15:58:19.172Z,90.66
2023-03-28T16:00:49.902Z,90.53
2023-03-28T16:03:32.568Z,90.03
2023-03-28T16:06:23.297Z,90.61
2023-03-28T16:08:57.468Z,90.54
2023-03-28T16:11:26.035Z,91.42
2023-03-28T16:13:52.572Z,88.34
2023-03-28T16:16:27.971Z,87.08
2023-03-28T16:18:55.045Z,86.91
2023-03-28T16:21:22.772Z,88.04
2023-03-28T16:23:49.143Z,89.33
2023-03-28T16:26:15.697Z,88.23
2023-03-28T16:28:42.253Z,88.00
2023-03-28T16:33:39.094Z,88.46
2023-03-28T16:36:05.829Z,88.53
2023-03-28T16:38:32.264Z,89.52
2023-03-28T16:40:58.630Z,91.19
2023-03-28T16:43:25.004Z,90.21
2023-03-28T16:45:51.530Z,91.63
2023-03-28T16:48:17.914Z,91.08
2023-03-28T16:50:58.679Z,91.88
2023-03-28T16:53:25.369Z,93.00
2023-03-28T16:55:52.842Z,92.65
2023-03-28T16:58:19.206Z,96.19
2023-03-28T17:00:46.478Z,92.93
2023-03-28T17:03:13.048Z,93.04
2023-03-28T17:05:39.701Z,93.07
2023-03-28T17:08:06.710Z,94.27
2023-03-28T17:10:33.182Z,93.89
2023-03-28T17:13:02.334Z,94.85
2023-03-28T17:15:30.889Z,98.96
2023-03-28T17:17:57.994Z,97.80
2023-03-28T17:20:24.765Z,96.86
2023-03-28T17:22:51.407Z,97.61
2023-03-28T17:25:18.514Z,98.39
2023-03-28T17:27:45.298Z,100.00
2023-03-28T17:30:12.921Z,100.00
2023-03-28T17:32:40.038Z,100.00
2023-03-28T17:35:06.965Z,100.00
2023-03-28T17:37:33.331Z,100.00
2023-03-28T17:39:59.894Z,100.00
2023-03-28T17:42:26.871Z,100.00
2023-03-28T17:44:54.579Z,100.00
2023-03-28T17:47:20.928Z,100.00
2023-03-28T17:52:37.751Z,100.00
2023-03-28T17:55:06.186Z,100.00
2023-03-28T17:57:32.579Z,100.00
2023-03-28T18:00:01.114Z,100.00
2023-03-28T18:02:27.953Z,100.00
2023-03-28T18:04:54.441Z,100.00
2023-03-28T18:07:20.870Z,100.00
2023-03-28T18:09:47.443Z,100.00
2023-03-28T18:12:13.836Z,100.00
2023-03-28T18:14:40.511Z,100.00
2023-03-28T18:17:06.865Z,100.00
2023-03-28T18:19:33.269Z,100.00
2023-03-28T18:22:00.654Z,100.00
2023-03-28T18:24:27.300Z,100.00
2023-03-28T18:26:53.748Z,100.00
2023-03-28T18:29:20.174Z,100.00
2023-03-28T18:31:46.636Z,100.00
2023-03-28T18:34:13.119Z,100.00
2023-03-28T18:36:43.719Z,100.00
2023-03-28T18:39:10.430Z,100.00
2023-03-28T18:41:37.093Z,100.00
2023-03-28T18:44:04.124Z,100.00
2023-03-28T18:46:30.522Z,100.00
2023-03-28T18:48:58.941Z,100.00
2023-03-28T18:51:25.390Z,100.00
2023-03-28T18:53:54.049Z,100.00
2023-03-28T18:56:21.940Z,100.00
2023-03-28T18:58:50.258Z,100.00
2023-03-28T19:01:17.292Z,100.00
2023-03-28T19:03:44.834Z,100.00
2023-03-28T19:06:14.870Z,100.00
2023-03-28T19:08:41.332Z,100.00
2023-03-28T19:11:12.361Z,100.00
2023-03-28T19:13:39.037Z,100.00
2023-03-28T19:16:13.172Z,100.00
2023-03-28T19:18:40.779Z,100.00
2023-03-28T19:21:07.593Z,100.00
2023-03-28T19:23:34.006Z,100.00
2023-03-28T19:26:00.580Z,100.00
2023-03-28T19:28:27.193Z,100.00
2023-03-28T19:31:01.329Z,100.00
2023-03-28T19:33:27.845Z,100.00
2023-03-28T19:35:54.373Z,100.00
2023-03-28T19:38:22.064Z,100.00
2023-03-28T19:40:48.605Z,100.00
2023-03-28T19:43:20.788Z,100.00
2023-03-28T19:45:47.413Z,100.00
2023-03-28T19:48:13.888Z,100.00
2023-03-28T19:50:41.279Z,100.00
2023-03-28T19:53:07.683Z,100.00
2023-03-28T19:55:34.285Z,100.00
2023-03-28T19:58:00.778Z,100.00
2023-03-28T20:00:27.307Z,100.00
2023-03-28T20:02:54.032Z,100.00
2023-03-28T20:05:20.644Z,100.00
2023-03-28T20:07:47.041Z,100.00
2023-03-28T20:10:13.405Z,100.00
2023-03-28T20:12:40.959Z,100.00
2023-03-28T20:15:08.471Z,100.00
2023-03-28T20:17:35.035Z,100.00
2023-03-28T20:20:01.691Z,100.00
2023-03-28T20:22:29.696Z,100.00
2023-03-28T20:24:56.172Z,100.00
2023-03-28T20:27:24.507Z,100.00
2023-03-28T20:29:51.227Z,100.00
2023-03-28T20:32:17.611Z,100.00
2023-03-28T20:34:43.969Z,100.00
2023-03-28T20:37:10.365Z,100.00
2023-03-28T20:39:37.058Z,100.00
2023-03-28T20:42:03.781Z,100.00
2023-03-28T20:44:30.503Z,100.00
2023-03-28T20:46:56.914Z,100.00
2023-03-28T20:49:24.303Z,100.00
2023-03-28T20:51:50.864Z,100.00
2023-03-28T20:54:17.271Z,100.00
2023-03-28T20:56:43.694Z,100.00
2023-03-28T20:59:10.103Z,100.00
2023-03-28T21:01:39.319Z,100.00
2023-03-28T21:04:07.064Z,100.00
2023-03-28T21:06:35.963Z,100.00
2023-03-28T21:09:04.612Z,100.00
2023-03-28T21:11:32.597Z,100.00
2023-03-28T21:13:59.689Z,100.00
2023-03-28T21:16:26.471Z,100.00
2023-03-28T21:18:53.030Z,100.00
2023-03-28T21:21:20.148Z,100.00
2023-03-28T21:23:46.828Z,100.00
2023-03-28T21:26:15.958Z,100.00
2023-03-28T21:28:42.330Z,100.00
2023-03-28T21:31:13.720Z,100.00
2023-03-28T21:33:41.648Z,100.00
2023-03-28T21:36:10.104Z,100.00
2023-03-28T21:38:36.909Z,100.00
2023-03-28T21:41:04.321Z,100.00
2023-03-28T21:43:30.778Z,100.00
2023-03-28T21:45:57.261Z,100.00
2023-03-28T21:48:23.668Z,100.00
2023-03-28T21:50:53.734Z,100.00
2023-03-28T21:53:20.707Z,100.00
2023-03-28T21:55:47.414Z,100.00
2023-03-28T21:58:13.790Z,100.00
2023-03-28T22:00:40.885Z,100.00
2023-03-28T22:03:07.340Z,100.00
2023-03-28T22:05:41.321Z,100.00
2023-03-28T22:08:09.673Z,100.00
2023-03-28T22:10:37.493Z,100.00
2023-03-28T22:13:04.085Z,100.00
2023-03-28T22:15:30.838Z,100.00
2023-03-28T22:17:58.238Z,100.00
2023-03-28T22:20:25.949Z,100.00
2023-03-28T22:22:52.512Z,100.00
2023-03-28T22:25:18.904Z,100.00
2023-03-28T22:27:45.725Z,100.00
2023-03-28T22:30:12.406Z,100.00
2023-03-28T22:32:39.220Z,100.00
2023-03-28T22:35:06.061Z,100.00
2023-03-28T22:37:33.110Z,100.00
2023-03-28T22:39:59.488Z,100.00
2023-03-28T22:42:26.324Z,100.00
2023-03-28T22:44:52.928Z,100.00
2023-03-28T22:47:19.305Z,100.00
2023-03-28T22:49:45.897Z,100.00
2023-03-28T22:52:13.379Z,100.00
2023-03-28T22:54:39.966Z,100.00
2023-03-28T22:57:06.968Z,100.00
2023-03-28T22:59:33.879Z,100.00
2023-03-28T23:02:00.580Z,100.00
2023-03-28T23:04:27.314Z,100.00
2023-03-28T23:06:53.819Z,100.00
2023-03-28T23:09:20.424Z,100.00
2023-03-28T23:11:46.852Z,100.00
2023-03-28T23:14:13.250Z,100.00
2023-03-28T23:16:39.684Z,100.00
2023-03-28T23:19:06.725Z,100.00
2023-03-28T23:21:33.983Z,100.00
2023-03-28T23:24:01.004Z,100.00
2023-03-28T23:26:27.454Z,100.00
2023-03-28T23:28:53.859Z,100.00
2023-03-28T23:31:20.369Z,100.00
2023-03-28T23:33:46.941Z,100.00
2023-03-28T23:36:20.088Z,100.00
2023-03-28T23:38:47.378Z,100.00
2023-03-28T23:41:14.003Z,100.00
2023-03-28T23:43:40.697Z,100.00
2023-03-28T23:46:07.797Z,100.00
2023-03-28T23:48:34.598Z,100.00
2023-03-28T23:51:04.507Z,100.00
2023-03-28T23:53:31.184Z,100.00
2023-03-28T23:55:57.641Z,100.00
2023-03-28T23:58:24.085Z,100.00
